sensor_id;sensor_type;location;lat;lon;timestamp;temperature;humidity
8043;DHT22;4064;48.132;11.366;2023-04-06T00:02:12;-0.30;65.50
8043;DHT22;4064;48.132;11.366;2023-04-06T00:04:38;-0.30;65.90
8043;DHT22;4064;48.132;11.366;2023-04-06T00:07:04;-0.30;66.20
8043;DHT22;4064;48.132;11.366;2023-04-06T00:09:31;-0.30;66.10
8043;DHT22;4064;48.132;11.366;2023-04-06T00:11:57;-0.40;66.20
8043;DHT22;4064;48.132;11.366;2023-04-06T00:14:23;-0.30;67.50
8043;DHT22;4064;48.132;11.366;2023-04-06T00:16:49;-0.30;67.40
8043;DHT22;4064;48.132;11.366;2023-04-06T00:19:16;-0.30;67.70
8043;DHT22;4064;48.132;11.366;2023-04-06T00:21:42;-0.30;66.70
8043;DHT22;4064;48.132;11.366;2023-04-06T00:24:07;-0.30;66.50
8043;DHT22;4064;48.132;11.366;2023-04-06T00:26:33;-0.30;66.60
8043;DHT22;4064;48.132;11.366;2023-04-06T00:29:00;-0.40;66.90
8043;DHT22;4064;48.132;11.366;2023-04-06T00:31:26;-0.40;67.60
8043;DHT22;4064;48.132;11.366;2023-04-06T00:33:51;-0.30;67.70
8043;DHT22;4064;48.132;11.366;2023-04-06T00:36:18;-0.30;67.40
8043;DHT22;4064;48.132;11.366;2023-04-06T00:38:44;-0.50;67.00
8043;DHT22;4064;48.132;11.366;2023-04-06T00:41:11;-0.50;67.50
8043;DHT22;4064;48.132;11.366;2023-04-06T00:43:37;-0.50;67.60
8043;DHT22;4064;48.132;11.366;2023-04-06T00:46:03;-0.50;68.00
8043;DHT22;4064;48.132;11.366;2023-04-06T00:48:28;-0.60;67.80
8043;DHT22;4064;48.132;11.366;2023-04-06T00:50:57;-0.70;68.90
8043;DHT22;4064;48.132;11.366;2023-04-06T00:53:23;-0.60;70.00
8043;DHT22;4064;48.132;11.366;2023-04-06T00:55:50;-0.60;69.50
8043;DHT22;4064;48.132;11.366;2023-04-06T00:58:15;-0.60;70.00
8043;DHT22;4064;48.132;11.366;2023-04-06T01:00:42;-0.70;69.70
8043;DHT22;4064;48.132;11.366;2023-04-06T01:03:08;-0.60;70.60
8043;DHT22;4064;48.132;11.366;2023-04-06T01:05:37;-0.50;70.90
8043;DHT22;4064;48.132;11.366;2023-04-06T01:08:06;-0.50;71.10
8043;DHT22;4064;48.132;11.366;2023-04-06T01:10:33;-0.60;71.00
8043;DHT22;4064;48.132;11.366;2023-04-06T01:12:59;-0.50;72.00
8043;DHT22;4064;48.132;11.366;2023-04-06T01:15:26;-0.50;71.50
8043;DHT22;4064;48.132;11.366;2023-04-06T01:17:53;-0.60;71.70
8043;DHT22;4064;48.132;11.366;2023-04-06T01:20:18;-0.60;71.30
8043;DHT22;4064;48.132;11.366;2023-04-06T01:22:44;-0.70;71.60
8043;DHT22;4064;48.132;11.366;2023-04-06T01:25:10;-0.70;72.50
8043;DHT22;4064;48.132;11.366;2023-04-06T01:27:36;-0.70;72.70
8043;DHT22;4064;48.132;11.366;2023-04-06T01:30:02;-0.70;72.70
8043;DHT22;4064;48.132;11.366;2023-04-06T01:32:30;-0.80;71.90
8043;DHT22;4064;48.132;11.366;2023-04-06T01:34:55;-0.70;72.90
8043;DHT22;4064;48.132;11.366;2023-04-06T01:37:21;-0.70;73.10
8043;DHT22;4064;48.132;11.366;2023-04-06T01:39:47;-0.80;72.50
8043;DHT22;4064;48.132;11.366;2023-04-06T01:42:13;-0.80;72.60
8043;DHT22;4064;48.132;11.366;2023-04-06T01:44:39;-0.90;73.40
8043;DHT22;4064;48.132;11.366;2023-04-06T01:47:05;-0.80;73.30
8043;DHT22;4064;48.132;11.366;2023-04-06T01:49:31;-0.90;72.90
8043;DHT22;4064;48.132;11.366;2023-04-06T01:51:57;-1.00;74.00
8043;DHT22;4064;48.132;11.366;2023-04-06T01:54:23;-1.00;74.00
8043;DHT22;4064;48.132;11.366;2023-04-06T01:56:50;-1.00;73.70
8043;DHT22;4064;48.132;11.366;2023-04-06T01:59:18;-1.00;74.60
8043;DHT22;4064;48.132;11.366;2023-04-06T02:01:43;-1.00;74.10
8043;DHT22;4064;48.132;11.366;2023-04-06T02:04:09;-1.00;75.20
8043;DHT22;4064;48.132;11.366;2023-04-06T02:06:35;-0.90;75.50
8043;DHT22;4064;48.132;11.366;2023-04-06T02:09:01;-1.00;75.20
8043;DHT22;4064;48.132;11.366;2023-04-06T02:11:27;-1.00;75.20
8043;DHT22;4064;48.132;11.366;2023-04-06T02:13:55;-1.00;74.80
8043;DHT22;4064;48.132;11.366;2023-04-06T02:16:22;-1.00;75.10
8043;DHT22;4064;48.132;11.366;2023-04-06T02:18:49;-1.10;75.20
8043;DHT22;4064;48.132;11.366;2023-04-06T02:21:17;-1.20;74.80
8043;DHT22;4064;48.132;11.366;2023-04-06T02:23:46;-1.30;75.60
8043;DHT22;4064;48.132;11.366;2023-04-06T02:26:13;-1.20;76.20
8043;DHT22;4064;48.132;11.366;2023-04-06T02:28:39;-1.20;76.40
8043;DHT22;4064;48.132;11.366;2023-04-06T02:31:05;-1.20;75.60
8043;DHT22;4064;48.132;11.366;2023-04-06T02:33:31;-1.30;76.10
8043;DHT22;4064;48.132;11.366;2023-04-06T02:35:56;-1.30;76.80
8043;DHT22;4064;48.132;11.366;2023-04-06T02:38:22;-1.30;76.60
8043;DHT22;4064;48.132;11.366;2023-04-06T02:40:48;-1.30;77.00
8043;DHT22;4064;48.132;11.366;2023-04-06T02:43:14;-1.30;77.40
8043;DHT22;4064;48.132;11.366;2023-04-06T02:45:42;-1.40;77.20
8043;DHT22;4064;48.132;11.366;2023-04-06T02:48:07;-1.40;77.60
8043;DHT22;4064;48.132;11.366;2023-04-06T02:50:33;-1.40;78.70
8043;DHT22;4064;48.132;11.366;2023-04-06T02:52:59;-1.40;78.30
8043;DHT22;4064;48.132;11.366;2023-04-06T02:55:26;-1.50;78.50
8043;DHT22;4064;48.132;11.366;2023-04-06T02:57:52;-1.40;78.90
8043;DHT22;4064;48.132;11.366;2023-04-06T03:00:18;-1.30;79.70
8043;DHT22;4064;48.132;11.366;2023-04-06T03:02:45;-1.30;78.90
8043;DHT22;4064;48.132;11.366;2023-04-06T03:05:10;-1.30;79.20
8043;DHT22;4064;48.132;11.366;2023-04-06T03:07:36;-1.30;79.60
8043;DHT22;4064;48.132;11.366;2023-04-06T03:10:03;-1.40;79.20
8043;DHT22;4064;48.132;11.366;2023-04-06T03:12:29;-1.40;79.70
8043;DHT22;4064;48.132;11.366;2023-04-06T03:14:54;-1.50;80.60
8043;DHT22;4064;48.132;11.366;2023-04-06T03:17:21;-1.50;80.60
8043;DHT22;4064;48.132;11.366;2023-04-06T03:19:46;-1.60;81.50
8043;DHT22;4064;48.132;11.366;2023-04-06T03:22:12;-1.60;82.00
8043;DHT22;4064;48.132;11.366;2023-04-06T03:24:38;-1.60;83.40
8043;DHT22;4064;48.132;11.366;2023-04-06T03:27:04;-1.60;83.10
8043;DHT22;4064;48.132;11.366;2023-04-06T03:29:30;-1.60;83.40
8043;DHT22;4064;48.132;11.366;2023-04-06T03:31:56;-1.60;84.50
8043;DHT22;4064;48.132;11.366;2023-04-06T03:34:22;-1.60;85.20
8043;DHT22;4064;48.132;11.366;2023-04-06T03:36:48;-1.70;86.70
8043;DHT22;4064;48.132;11.366;2023-04-06T03:39:16;-1.60;87.30
8043;DHT22;4064;48.132;11.366;2023-04-06T03:41:44;-1.60;87.60
8043;DHT22;4064;48.132;11.366;2023-04-06T03:44:15;-1.60;88.70
8043;DHT22;4064;48.132;11.366;2023-04-06T03:46:42;-1.60;89.60
8043;DHT22;4064;48.132;11.366;2023-04-06T03:49:09;-1.70;89.80
8043;DHT22;4064;48.132;11.366;2023-04-06T03:51:35;-1.70;90.80
8043;DHT22;4064;48.132;11.366;2023-04-06T03:54:00;-1.70;91.00
8043;DHT22;4064;48.132;11.366;2023-04-06T03:56:26;-1.60;91.10
8043;DHT22;4064;48.132;11.366;2023-04-06T03:58:52;-1.50;91.00
8043;DHT22;4064;48.132;11.366;2023-04-06T04:01:18;-1.60;91.30
8043;DHT22;4064;48.132;11.366;2023-04-06T04:03:44;-1.60;91.00
8043;DHT22;4064;48.132;11.366;2023-04-06T04:06:10;-1.60;91.30
8043;DHT22;4064;48.132;11.366;2023-04-06T04:08:35;-1.60;91.90
8043;DHT22;4064;48.132;11.366;2023-04-06T04:11:02;-1.60;92.20
8043;DHT22;4064;48.132;11.366;2023-04-06T04:13:27;-1.70;92.50
8043;DHT22;4064;48.132;11.366;2023-04-06T04:15:53;-1.70;93.10
8043;DHT22;4064;48.132;11.366;2023-04-06T04:18:19;-1.80;93.40
8043;DHT22;4064;48.132;11.366;2023-04-06T04:20:46;-1.70;93.60
8043;DHT22;4064;48.132;11.366;2023-04-06T04:23:12;-1.70;93.50
8043;DHT22;4064;48.132;11.366;2023-04-06T04:25:37;-1.70;94.00
8043;DHT22;4064;48.132;11.366;2023-04-06T04:28:03;-1.80;94.00
8043;DHT22;4064;48.132;11.366;2023-04-06T04:30:29;-1.80;94.40
8043;DHT22;4064;48.132;11.366;2023-04-06T04:32:55;-1.70;94.50
8043;DHT22;4064;48.132;11.366;2023-04-06T04:35:21;-1.70;94.40
8043;DHT22;4064;48.132;11.366;2023-04-06T04:37:47;-1.80;94.70
8043;DHT22;4064;48.132;11.366;2023-04-06T04:40:12;-1.80;94.80
8043;DHT22;4064;48.132;11.366;2023-04-06T04:42:38;-1.80;95.20
8043;DHT22;4064;48.132;11.366;2023-04-06T04:45:05;-1.70;95.90
8043;DHT22;4064;48.132;11.366;2023-04-06T04:47:30;-1.70;95.60
8043;DHT22;4064;48.132;11.366;2023-04-06T04:49:56;-1.70;95.40
8043;DHT22;4064;48.132;11.366;2023-04-06T04:52:22;-1.70;95.80
8043;DHT22;4064;48.132;11.366;2023-04-06T04:54:47;-1.60;95.80
8043;DHT22;4064;48.132;11.366;2023-04-06T04:57:13;-1.50;95.50
8043;DHT22;4064;48.132;11.366;2023-04-06T04:59:40;-1.60;95.50
8043;DHT22;4064;48.132;11.366;2023-04-06T05:02:06;-1.60;95.70
8043;DHT22;4064;48.132;11.366;2023-04-06T05:04:32;-1.50;95.90
8043;DHT22;4064;48.132;11.366;2023-04-06T05:07:08;-1.50;95.80
8043;DHT22;4064;48.132;11.366;2023-04-06T05:09:34;-1.50;95.70
8043;DHT22;4064;48.132;11.366;2023-04-06T05:12:02;-1.50;95.80
8043;DHT22;4064;48.132;11.366;2023-04-06T05:14:28;-1.40;96.20
8043;DHT22;4064;48.132;11.366;2023-04-06T05:16:54;-1.40;95.80
8043;DHT22;4064;48.132;11.366;2023-04-06T05:19:20;-1.40;95.90
8043;DHT22;4064;48.132;11.366;2023-04-06T05:21:46;-1.30;95.90
8043;DHT22;4064;48.132;11.366;2023-04-06T05:24:12;-1.30;95.80
8043;DHT22;4064;48.132;11.366;2023-04-06T05:26:38;-1.30;95.70
8043;DHT22;4064;48.132;11.366;2023-04-06T05:29:04;-1.30;95.90
8043;DHT22;4064;48.132;11.366;2023-04-06T05:31:30;-1.20;96.10
8043;DHT22;4064;48.132;11.366;2023-04-06T05:33:56;-1.10;96.10
8043;DHT22;4064;48.132;11.366;2023-04-06T05:36:23;-1.00;95.60
8043;DHT22;4064;48.132;11.366;2023-04-06T05:38:49;-1.00;95.30
8043;DHT22;4064;48.132;11.366;2023-04-06T05:41:16;-0.90;95.60
8043;DHT22;4064;48.132;11.366;2023-04-06T05:43:42;-0.80;95.30
8043;DHT22;4064;48.132;11.366;2023-04-06T05:46:08;-0.70;95.30
8043;DHT22;4064;48.132;11.366;2023-04-06T05:48:34;-0.50;95.10
8043;DHT22;4064;48.132;11.366;2023-04-06T05:50:59;-0.50;94.30
8043;DHT22;4064;48.132;11.366;2023-04-06T05:53:26;-0.30;94.10
8043;DHT22;4064;48.132;11.366;2023-04-06T05:55:53;0.10;94.80
8043;DHT22;4064;48.132;11.366;2023-04-06T05:58:20;1.60;94.80
8043;DHT22;4064;48.132;11.366;2023-04-06T06:00:48;3.20;91.60
8043;DHT22;4064;48.132;11.366;2023-04-06T06:03:15;4.80;85.70
8043;DHT22;4064;48.132;11.366;2023-04-06T06:05:40;6.10;77.10
8043;DHT22;4064;48.132;11.366;2023-04-06T06:08:08;7.40;71.50
8043;DHT22;4064;48.132;11.366;2023-04-06T06:10:34;8.70;66.00
8043;DHT22;4064;48.132;11.366;2023-04-06T06:13:00;10.00;59.50
8043;DHT22;4064;48.132;11.366;2023-04-06T06:15:26;11.10;53.50
8043;DHT22;4064;48.132;11.366;2023-04-06T06:17:52;11.70;48.80
8043;DHT22;4064;48.132;11.366;2023-04-06T06:20:18;11.60;47.50
8043;DHT22;4064;48.132;11.366;2023-04-06T06:22:43;11.10;47.60
8043;DHT22;4064;48.132;11.366;2023-04-06T06:25:09;10.20;47.50
8043;DHT22;4064;48.132;11.366;2023-04-06T06:27:35;9.60;50.40
8043;DHT22;4064;48.132;11.366;2023-04-06T06:30:01;9.50;51.90
8043;DHT22;4064;48.132;11.366;2023-04-06T06:32:28;10.20;50.70
8043;DHT22;4064;48.132;11.366;2023-04-06T06:34:53;11.60;47.10
8043;DHT22;4064;48.132;11.366;2023-04-06T06:37:20;12.70;45.20
8043;DHT22;4064;48.132;11.366;2023-04-06T06:39:46;13.40;42.90
8043;DHT22;4064;48.132;11.366;2023-04-06T06:42:12;13.00;41.10
8043;DHT22;4064;48.132;11.366;2023-04-06T06:44:38;11.80;41.40
8043;DHT22;4064;48.132;11.366;2023-04-06T06:47:04;10.50;42.40
8043;DHT22;4064;48.132;11.366;2023-04-06T06:49:34;9.50;45.90
8043;DHT22;4064;48.132;11.366;2023-04-06T06:52:00;8.90;48.20
8043;DHT22;4064;48.132;11.366;2023-04-06T06:54:25;10.40;47.20
8043;DHT22;4064;48.132;11.366;2023-04-06T06:56:51;12.10;45.70
8043;DHT22;4064;48.132;11.366;2023-04-06T06:59:17;12.20;42.30
8043;DHT22;4064;48.132;11.366;2023-04-06T07:01:43;11.30;42.70
8043;DHT22;4064;48.132;11.366;2023-04-06T07:04:09;11.50;44.90
8043;DHT22;4064;48.132;11.366;2023-04-06T07:06:36;11.20;42.90
8043;DHT22;4064;48.132;11.366;2023-04-06T07:09:02;12.20;43.70
8043;DHT22;4064;48.132;11.366;2023-04-06T07:11:29;13.50;42.60
8043;DHT22;4064;48.132;11.366;2023-04-06T07:13:55;13.60;40.30
8043;DHT22;4064;48.132;11.366;2023-04-06T07:16:22;12.50;39.50
8043;DHT22;4064;48.132;11.366;2023-04-06T07:18:47;12.70;40.90
8043;DHT22;4064;48.132;11.366;2023-04-06T07:21:13;13.90;41.30
8043;DHT22;4064;48.132;11.366;2023-04-06T07:23:39;15.20;40.10
8043;DHT22;4064;48.132;11.366;2023-04-06T07:26:05;16.30;37.50
8043;DHT22;4064;48.132;11.366;2023-04-06T07:28:31;17.20;36.10
8043;DHT22;4064;48.132;11.366;2023-04-06T07:30:57;16.50;36.10
8043;DHT22;4064;48.132;11.366;2023-04-06T07:33:22;16.30;35.60
8043;DHT22;4064;48.132;11.366;2023-04-06T07:35:49;16.80;37.20
8043;DHT22;4064;48.132;11.366;2023-04-06T07:38:16;18.10;35.50
8043;DHT22;4064;48.132;11.366;2023-04-06T07:40:42;18.70;34.30
8043;DHT22;4064;48.132;11.366;2023-04-06T07:43:08;18.70;32.00
8043;DHT22;4064;48.132;11.366;2023-04-06T07:45:34;18.80;32.70
8043;DHT22;4064;48.132;11.366;2023-04-06T07:48:00;18.00;32.00
8043;DHT22;4064;48.132;11.366;2023-04-06T07:50:26;17.50;33.70
8043;DHT22;4064;48.132;11.366;2023-04-06T07:52:52;18.10;31.80
8043;DHT22;4064;48.132;11.366;2023-04-06T07:55:17;17.90;31.70
8043;DHT22;4064;48.132;11.366;2023-04-06T07:57:43;18.40;32.10
8043;DHT22;4064;48.132;11.366;2023-04-06T08:00:09;18.50;30.90
8043;DHT22;4064;48.132;11.366;2023-04-06T08:02:35;19.40;31.30
8043;DHT22;4064;48.132;11.366;2023-04-06T08:05:01;19.90;29.70
8043;DHT22;4064;48.132;11.366;2023-04-06T08:07:27;20.00;30.00
8043;DHT22;4064;48.132;11.366;2023-04-06T08:09:54;19.20;28.80
8043;DHT22;4064;48.132;11.366;2023-04-06T08:12:19;18.50;29.30
8043;DHT22;4064;48.132;11.366;2023-04-06T08:14:45;17.80;29.60
8043;DHT22;4064;48.132;11.366;2023-04-06T08:17:11;17.80;30.50
8043;DHT22;4064;48.132;11.366;2023-04-06T08:19:37;18.50;30.80
8043;DHT22;4064;48.132;11.366;2023-04-06T08:22:03;19.00;30.40
8043;DHT22;4064;48.132;11.366;2023-04-06T08:24:30;20.00;29.80
8043;DHT22;4064;48.132;11.366;2023-04-06T08:26:57;21.40;29.60
8043;DHT22;4064;48.132;11.366;2023-04-06T08:29:23;22.40;27.70
8043;DHT22;4064;48.132;11.366;2023-04-06T08:31:49;22.40;26.50
8043;DHT22;4064;48.132;11.366;2023-04-06T08:34:15;21.90;26.70
8043;DHT22;4064;48.132;11.366;2023-04-06T08:36:42;21.80;26.80
8043;DHT22;4064;48.132;11.366;2023-04-06T08:39:07;22.30;27.00
8043;DHT22;4064;48.132;11.366;2023-04-06T08:41:34;22.60;26.70
8043;DHT22;4064;48.132;11.366;2023-04-06T08:44:01;22.90;26.20
8043;DHT22;4064;48.132;11.366;2023-04-06T08:46:31;23.00;25.10
8043;DHT22;4064;48.132;11.366;2023-04-06T08:49:02;23.00;25.90
8043;DHT22;4064;48.132;11.366;2023-04-06T08:51:29;23.10;25.40
8043;DHT22;4064;48.132;11.366;2023-04-06T08:54:00;23.30;25.40
8043;DHT22;4064;48.132;11.366;2023-04-06T08:56:27;23.40;26.20
8043;DHT22;4064;48.132;11.366;2023-04-06T08:58:54;23.60;26.10
8043;DHT22;4064;48.132;11.366;2023-04-06T09:01:22;23.30;26.10
8043;DHT22;4064;48.132;11.366;2023-04-06T09:03:51;23.60;26.10
8043;DHT22;4064;48.132;11.366;2023-04-06T09:06:19;23.70;26.00
8043;DHT22;4064;48.132;11.366;2023-04-06T09:08:46;23.70;25.40
8043;DHT22;4064;48.132;11.366;2023-04-06T09:11:12;24.00;25.70
8043;DHT22;4064;48.132;11.366;2023-04-06T09:13:54;24.00;25.40
8043;DHT22;4064;48.132;11.366;2023-04-06T09:16:22;24.10;24.30
8043;DHT22;4064;48.132;11.366;2023-04-06T09:18:49;24.20;25.40
8043;DHT22;4064;48.132;11.366;2023-04-06T09:21:18;24.50;25.40
8043;DHT22;4064;48.132;11.366;2023-04-06T09:23:44;23.90;24.20
8043;DHT22;4064;48.132;11.366;2023-04-06T09:26:17;22.20;23.90
8043;DHT22;4064;48.132;11.366;2023-04-06T09:28:48;21.90;25.10
8043;DHT22;4064;48.132;11.366;2023-04-06T09:31:20;21.50;24.50
8043;DHT22;4064;48.132;11.366;2023-04-06T09:33:46;21.70;25.00
8043;DHT22;4064;48.132;11.366;2023-04-06T09:36:13;22.20;25.00
8043;DHT22;4064;48.132;11.366;2023-04-06T09:38:54;22.10;24.70
8043;DHT22;4064;48.132;11.366;2023-04-06T09:41:28;22.00;24.20
8043;DHT22;4064;48.132;11.366;2023-04-06T09:44:12;21.30;25.10
8043;DHT22;4064;48.132;11.366;2023-04-06T09:46:39;20.50;26.20
8043;DHT22;4064;48.132;11.366;2023-04-06T09:49:07;20.20;26.00
8043;DHT22;4064;48.132;11.366;2023-04-06T09:51:39;20.80;26.50
8043;DHT22;4064;48.132;11.366;2023-04-06T09:54:08;21.40;26.30
8043;DHT22;4064;48.132;11.366;2023-04-06T09:56:45;22.20;26.30
8043;DHT22;4064;48.132;11.366;2023-04-06T10:02:06;21.60;25.30
8043;DHT22;4064;48.132;11.366;2023-04-06T10:04:40;21.70;25.90
8043;DHT22;4064;48.132;11.366;2023-04-06T10:07:09;21.70;25.40
8043;DHT22;4064;48.132;11.366;2023-04-06T10:09:37;21.10;25.10
8043;DHT22;4064;48.132;11.366;2023-04-06T10:12:06;21.90;26.00
8043;DHT22;4064;48.132;11.366;2023-04-06T10:14:36;22.10;25.40
8043;DHT22;4064;48.132;11.366;2023-04-06T10:17:06;22.30;25.60
8043;DHT22;4064;48.132;11.366;2023-04-06T10:22:03;20.70;25.90
8043;DHT22;4064;48.132;11.366;2023-04-06T10:24:30;19.80;26.40
8043;DHT22;4064;48.132;11.366;2023-04-06T10:26:58;19.90;27.20
8043;DHT22;4064;48.132;11.366;2023-04-06T10:29:25;19.40;26.30
8043;DHT22;4064;48.132;11.366;2023-04-06T10:31:51;19.30;26.90
8043;DHT22;4064;48.132;11.366;2023-04-06T10:34:17;19.20;26.80
8043;DHT22;4064;48.132;11.366;2023-04-06T10:36:43;18.50;26.80
8043;DHT22;4064;48.132;11.366;2023-04-06T10:39:09;18.60;27.30
8043;DHT22;4064;48.132;11.366;2023-04-06T10:41:42;18.40;26.60
8043;DHT22;4064;48.132;11.366;2023-04-06T10:44:08;18.10;26.90
8043;DHT22;4064;48.132;11.366;2023-04-06T10:46:55;17.50;27.10
8043;DHT22;4064;48.132;11.366;2023-04-06T10:49:38;17.00;27.80
8043;DHT22;4064;48.132;11.366;2023-04-06T10:52:06;16.50;27.60
8043;DHT22;4064;48.132;11.366;2023-04-06T10:54:32;15.80;28.00
8043;DHT22;4064;48.132;11.366;2023-04-06T10:56:58;15.10;28.10
8043;DHT22;4064;48.132;11.366;2023-04-06T10:59:24;15.10;28.60
8043;DHT22;4064;48.132;11.366;2023-04-06T11:01:50;15.90;28.50
8043;DHT22;4064;48.132;11.366;2023-04-06T11:04:17;16.60;28.30
8043;DHT22;4064;48.132;11.366;2023-04-06T11:06:47;16.50;28.10
8043;DHT22;4064;48.132;11.366;2023-04-06T11:09:24;15.80;28.40
8043;DHT22;4064;48.132;11.366;2023-04-06T11:11:50;15.00;28.70
8043;DHT22;4064;48.132;11.366;2023-04-06T11:14:16;14.60;29.70
8043;DHT22;4064;48.132;11.366;2023-04-06T11:16:42;14.30;30.10
8043;DHT22;4064;48.132;11.366;2023-04-06T11:19:11;14.00;30.40
8043;DHT22;4064;48.132;11.366;2023-04-06T11:21:39;13.70;30.80
8043;DHT22;4064;48.132;11.366;2023-04-06T11:24:22;13.80;30.70
8043;DHT22;4064;48.132;11.366;2023-04-06T11:26:56;13.70;30.30
8043;DHT22;4064;48.132;11.366;2023-04-06T11:29:25;14.00;31.00
8043;DHT22;4064;48.132;11.366;2023-04-06T11:31:58;14.70;31.40
8043;DHT22;4064;48.132;11.366;2023-04-06T11:34:34;15.30;30.50
8043;DHT22;4064;48.132;11.366;2023-04-06T11:37:03;15.50;29.80
8043;DHT22;4064;48.132;11.366;2023-04-06T11:39:32;15.20;29.30
8043;DHT22;4064;48.132;11.366;2023-04-06T11:42:01;15.40;29.40
8043;DHT22;4064;48.132;11.366;2023-04-06T11:44:46;15.50;28.70
8043;DHT22;4064;48.132;11.366;2023-04-06T11:47:12;15.60;29.40
8043;DHT22;4064;48.132;11.366;2023-04-06T11:49:41;16.10;29.80
8043;DHT22;4064;48.132;11.366;2023-04-06T11:52:23;16.10;28.50
8043;DHT22;4064;48.132;11.366;2023-04-06T11:54:52;16.30;28.40
8043;DHT22;4064;48.132;11.366;2023-04-06T11:57:20;16.40;28.10
8043;DHT22;4064;48.132;11.366;2023-04-06T11:59:46;16.30;27.50
8043;DHT22;4064;48.132;11.366;2023-04-06T12:02:12;16.40;28.10
8043;DHT22;4064;48.132;11.366;2023-04-06T12:04:38;16.60;28.50
8043;DHT22;4064;48.132;11.366;2023-04-06T12:07:05;16.70;28.40
8043;DHT22;4064;48.132;11.366;2023-04-06T12:09:31;16.80;27.40
8043;DHT22;4064;48.132;11.366;2023-04-06T12:11:57;16.80;27.90
8043;DHT22;4064;48.132;11.366;2023-04-06T12:14:23;16.60;27.40
8043;DHT22;4064;48.132;11.366;2023-04-06T12:16:49;16.90;28.60
8043;DHT22;4064;48.132;11.366;2023-04-06T12:19:15;17.10;28.00
8043;DHT22;4064;48.132;11.366;2023-04-06T12:21:41;16.80;27.70
8043;DHT22;4064;48.132;11.366;2023-04-06T12:24:08;16.30;28.30
8043;DHT22;4064;48.132;11.366;2023-04-06T12:26:36;16.20;29.10
8043;DHT22;4064;48.132;11.366;2023-04-06T12:29:02;15.80;29.20
8043;DHT22;4064;48.132;11.366;2023-04-06T12:31:34;15.30;28.90
8043;DHT22;4064;48.132;11.366;2023-04-06T12:34:00;15.00;29.60
8043;DHT22;4064;48.132;11.366;2023-04-06T12:36:27;15.20;30.00
8043;DHT22;4064;48.132;11.366;2023-04-06T12:38:54;15.80;30.40
8043;DHT22;4064;48.132;11.366;2023-04-06T12:41:20;16.30;29.30
8043;DHT22;4064;48.132;11.366;2023-04-06T12:43:46;16.50;28.80
8043;DHT22;4064;48.132;11.366;2023-04-06T12:46:12;16.90;29.00
8043;DHT22;4064;48.132;11.366;2023-04-06T12:48:39;17.10;29.60
8043;DHT22;4064;48.132;11.366;2023-04-06T12:51:06;16.90;29.50
8043;DHT22;4064;48.132;11.366;2023-04-06T12:53:33;16.90;29.40
8043;DHT22;4064;48.132;11.366;2023-04-06T12:56:00;17.00;29.90
8043;DHT22;4064;48.132;11.366;2023-04-06T12:58:26;17.00;29.00
8043;DHT22;4064;48.132;11.366;2023-04-06T13:00:57;16.40;28.50
8043;DHT22;4064;48.132;11.366;2023-04-06T13:03:23;15.80;29.50
8043;DHT22;4064;48.132;11.366;2023-04-06T13:05:50;15.80;29.50
8043;DHT22;4064;48.132;11.366;2023-04-06T13:08:18;16.10;30.10
8043;DHT22;4064;48.132;11.366;2023-04-06T13:10:49;16.70;29.80
8043;DHT22;4064;48.132;11.366;2023-04-06T13:13:16;17.10;28.70
8043;DHT22;4064;48.132;11.366;2023-04-06T13:15:43;17.00;28.60
8043;DHT22;4064;48.132;11.366;2023-04-06T13:18:11;16.70;28.40
8043;DHT22;4064;48.132;11.366;2023-04-06T13:20:37;16.30;28.40
8043;DHT22;4064;48.132;11.366;2023-04-06T13:23:02;15.90;28.20
8043;DHT22;4064;48.132;11.366;2023-04-06T13:25:29;15.40;28.50
8043;DHT22;4064;48.132;11.366;2023-04-06T13:27:55;14.80;29.60
8043;DHT22;4064;48.132;11.366;2023-04-06T13:30:21;14.30;30.50
8043;DHT22;4064;48.132;11.366;2023-04-06T13:32:48;13.90;31.20
8043;DHT22;4064;48.132;11.366;2023-04-06T13:35:14;13.50;31.40
8043;DHT22;4064;48.132;11.366;2023-04-06T13:37:42;13.20;32.00
8043;DHT22;4064;48.132;11.366;2023-04-06T13:40:08;13.00;32.00
8043;DHT22;4064;48.132;11.366;2023-04-06T13:42:34;12.80;31.70
8043;DHT22;4064;48.132;11.366;2023-04-06T13:45:09;12.80;32.40
8043;DHT22;4064;48.132;11.366;2023-04-06T13:47:37;12.80;32.90
8043;DHT22;4064;48.132;11.366;2023-04-06T13:50:04;12.80;33.40
8043;DHT22;4064;48.132;11.366;2023-04-06T13:52:30;13.40;32.80
8043;DHT22;4064;48.132;11.366;2023-04-06T13:54:56;14.10;33.10
8043;DHT22;4064;48.132;11.366;2023-04-06T13:57:21;14.50;31.00
8043;DHT22;4064;48.132;11.366;2023-04-06T13:59:48;14.80;30.00
8043;DHT22;4064;48.132;11.366;2023-04-06T14:02:16;14.80;30.10
8043;DHT22;4064;48.132;11.366;2023-04-06T14:04:42;14.80;29.90
8043;DHT22;4064;48.132;11.366;2023-04-06T14:07:07;14.40;30.00
8043;DHT22;4064;48.132;11.366;2023-04-06T14:09:34;14.50;30.40
8043;DHT22;4064;48.132;11.366;2023-04-06T14:12:00;14.50;30.00
8043;DHT22;4064;48.132;11.366;2023-04-06T14:14:27;14.80;30.10
8043;DHT22;4064;48.132;11.366;2023-04-06T14:16:53;15.10;30.10
8043;DHT22;4064;48.132;11.366;2023-04-06T14:19:20;14.80;29.60
8043;DHT22;4064;48.132;11.366;2023-04-06T14:21:47;14.50;29.40
8043;DHT22;4064;48.132;11.366;2023-04-06T14:24:14;14.10;29.60
8043;DHT22;4064;48.132;11.366;2023-04-06T14:26:40;13.90;30.00
8043;DHT22;4064;48.132;11.366;2023-04-06T14:29:09;13.90;30.80
8043;DHT22;4064;48.132;11.366;2023-04-06T14:31:35;14.10;31.10
8043;DHT22;4064;48.132;11.366;2023-04-06T14:34:02;13.90;30.30
8043;DHT22;4064;48.132;11.366;2023-04-06T14:36:32;13.60;30.00
8043;DHT22;4064;48.132;11.366;2023-04-06T14:39:06;13.30;30.50
8043;DHT22;4064;48.132;11.366;2023-04-06T14:41:33;13.40;31.00
8043;DHT22;4064;48.132;11.366;2023-04-06T14:44:00;13.60;30.70
8043;DHT22;4064;48.132;11.366;2023-04-06T14:46:26;13.70;30.20
8043;DHT22;4064;48.132;11.366;2023-04-06T14:48:56;13.90;30.20
8043;DHT22;4064;48.132;11.366;2023-04-06T14:51:26;14.00;29.90
8043;DHT22;4064;48.132;11.366;2023-04-06T14:53:54;14.00;29.80
8043;DHT22;4064;48.132;11.366;2023-04-06T14:56:24;13.70;29.40
8043;DHT22;4064;48.132;11.366;2023-04-06T14:58:50;13.70;29.80
8043;DHT22;4064;48.132;11.366;2023-04-06T15:01:18;13.60;29.60
8043;DHT22;4064;48.132;11.366;2023-04-06T15:03:46;13.60;29.80
8043;DHT22;4064;48.132;11.366;2023-04-06T15:06:13;13.80;30.30
8043;DHT22;4064;48.132;11.366;2023-04-06T15:08:43;13.80;29.90
8043;DHT22;4064;48.132;11.366;2023-04-06T15:11:09;13.70;30.40
8043;DHT22;4064;48.132;11.366;2023-04-06T15:13:36;13.60;30.00
8043;DHT22;4064;48.132;11.366;2023-04-06T15:16:02;13.40;30.50
8043;DHT22;4064;48.132;11.366;2023-04-06T15:18:27;13.10;30.80
8043;DHT22;4064;48.132;11.366;2023-04-06T15:20:54;12.80;31.10
8043;DHT22;4064;48.132;11.366;2023-04-06T15:23:21;12.50;30.90
8043;DHT22;4064;48.132;11.366;2023-04-06T15:25:47;12.20;30.70
8043;DHT22;4064;48.132;11.366;2023-04-06T15:28:13;11.90;31.10
8043;DHT22;4064;48.132;11.366;2023-04-06T15:30:39;11.70;31.30
8043;DHT22;4064;48.132;11.366;2023-04-06T15:33:07;11.60;32.50
8043;DHT22;4064;48.132;11.366;2023-04-06T15:35:34;11.40;32.20
8043;DHT22;4064;48.132;11.366;2023-04-06T15:38:05;11.50;32.80
8043;DHT22;4064;48.132;11.366;2023-04-06T15:40:32;11.70;32.70
8043;DHT22;4064;48.132;11.366;2023-04-06T15:42:58;11.90;32.80
8043;DHT22;4064;48.132;11.366;2023-04-06T15:45:23;12.10;32.40
8043;DHT22;4064;48.132;11.366;2023-04-06T15:47:49;12.20;32.10
8043;DHT22;4064;48.132;11.366;2023-04-06T15:50:15;12.10;32.10
8043;DHT22;4064;48.132;11.366;2023-04-06T15:52:41;12.10;32.60